sensor_id;sensor_type;location;lat;lon;timestamp;P1;durP1;ratioP1;P2;durP2;ratioP2
27303;SDS011;14791;52.392;13.092;2022-08-05T00:01:27;2.20;;;2.02;;
27303;SDS011;14791;52.392;13.092;2022-08-05T00:03:55;2.42;;;2.05;;
27303;SDS011;14791;52.392;13.092;2022-08-05T00:06:24;2.05;;;1.95;;
27303;SDS011;14791;52.392;13.092;2022-08-05T00:08:53;1.90;;;1.80;;
27303;SDS011;14791;52.392;13.092;2022-08-05T00:11:22;2.00;;;2.00;;
27303;SDS011;14791;52.392;13.092;2022-08-05T00:13:51;2.85;;;1.95;;
27303;SDS011;14791;52.392;13.092;2022-08-05T00:16:20;1.75;;;1.70;;
27303;SDS011;14791;52.392;13.092;2022-08-05T00:18:49;1.72;;;1.72;;
27303;SDS011;14791;52.392;13.092;2022-08-05T00:21:18;2.00;;;2.00;;
27303;SDS011;14791;52.392;13.092;2022-08-05T00:23:47;1.80;;;1.70;;
27303;SDS011;14791;52.392;13.092;2022-08-05T00:26:16;1.85;;;1.85;;
27303;SDS011;14791;52.392;13.092;2022-08-05T00:28:46;2.25;;;2.15;;
27303;SDS011;14791;52.392;13.092;2022-08-05T00:31:15;2.20;;;2.10;;
27303;SDS011;14791;52.392;13.092;2022-08-05T00:33:43;2.02;;;1.55;;
27303;SDS011;14791;52.392;13.092;2022-08-05T00:36:12;1.95;;;1.80;;
27303;SDS011;14791;52.392;13.092;2022-08-05T00:38:41;2.17;;;2.08;;
27303;SDS011;14791;52.392;13.092;2022-08-05T00:41:10;1.95;;;1.95;;
27303;SDS011;14791;52.392;13.092;2022-08-05T00:43:39;1.70;;;1.70;;
27303;SDS011;14791;52.392;13.092;2022-08-05T00:46:08;1.92;;;1.92;;
27303;SDS011;14791;52.392;13.092;2022-08-05T00:48:36;1.90;;;1.90;;
27303;SDS011;14791;52.392;13.092;2022-08-05T00:51:05;2.10;;;1.92;;
27303;SDS011;14791;52.392;13.092;2022-08-05T00:53:34;1.87;;;1.87;;
27303;SDS011;14791;52.392;13.092;2022-08-05T00:56:03;2.42;;;2.17;;
27303;SDS011;14791;52.392;13.092;2022-08-05T00:58:33;2.20;;;2.10;;
27303;SDS011;14791;52.392;13.092;2022-08-05T01:01:02;2.17;;;2.15;;
27303;SDS011;14791;52.392;13.092;2022-08-05T01:03:31;2.20;;;2.10;;
27303;SDS011;14791;52.392;13.092;2022-08-05T01:06:00;2.08;;;1.98;;
27303;SDS011;14791;52.392;13.092;2022-08-05T01:08:29;1.82;;;1.82;;
27303;SDS011;14791;52.392;13.092;2022-08-05T01:10:59;1.85;;;1.85;;
27303;SDS011;14791;52.392;13.092;2022-08-05T01:16:34;2.17;;;2.08;;
27303;SDS011;14791;52.392;13.092;2022-08-05T01:28:05;2.10;;;2.10;;
27303;SDS011;14791;52.392;13.092;2022-08-05T01:33:55;2.42;;;2.37;;
27303;SDS011;14791;52.392;13.092;2022-08-05T01:36:20;2.47;;;2.47;;
27303;SDS011;14791;52.392;13.092;2022-08-05T01:38:52;2.50;;;2.40;;
27303;SDS011;14791;52.392;13.092;2022-08-05T01:41:23;2.27;;;2.17;;
27303;SDS011;14791;52.392;13.092;2022-08-05T01:43:54;2.00;;;1.90;;
27303;SDS011;14791;52.392;13.092;2022-08-05T01:46:24;2.08;;;2.08;;
27303;SDS011;14791;52.392;13.092;2022-08-05T01:48:55;2.12;;;2.12;;
27303;SDS011;14791;52.392;13.092;2022-08-05T01:51:25;2.80;;;2.42;;
27303;SDS011;14791;52.392;13.092;2022-08-05T01:53:56;1.90;;;1.90;;
27303;SDS011;14791;52.392;13.092;2022-08-05T01:56:37;2.15;;;2.00;;
27303;SDS011;14791;52.392;13.092;2022-08-05T01:58:59;2.20;;;2.10;;
27303;SDS011;14791;52.392;13.092;2022-08-05T02:01:31;2.35;;;2.35;;
27303;SDS011;14791;52.392;13.092;2022-08-05T02:04:02;2.45;;;2.35;;
27303;SDS011;14791;52.392;13.092;2022-08-05T02:06:32;2.47;;;2.47;;
27303;SDS011;14791;52.392;13.092;2022-08-05T02:09:01;2.30;;;2.30;;
27303;SDS011;14791;52.392;13.092;2022-08-05T02:11:36;2.60;;;2.40;;
27303;SDS011;14791;52.392;13.092;2022-08-05T02:14:16;1.80;;;1.80;;
27303;SDS011;14791;52.392;13.092;2022-08-05T02:16:50;2.05;;;1.95;;
27303;SDS011;14791;52.392;13.092;2022-08-05T02:24:49;2.10;;;2.10;;
27303;SDS011;14791;52.392;13.092;2022-08-05T02:27:18;1.82;;;1.82;;
27303;SDS011;14791;52.392;13.092;2022-08-05T02:29:50;2.15;;;2.05;;
27303;SDS011;14791;52.392;13.092;2022-08-05T02:32:21;2.50;;;2.40;;
27303;SDS011;14791;52.392;13.092;2022-08-05T02:34:52;2.12;;;2.10;;
27303;SDS011;14791;52.392;13.092;2022-08-05T02:37:21;2.15;;;2.05;;
27303;SDS011;14791;52.392;13.092;2022-08-05T02:39:51;1.87;;;1.87;;
27303;SDS011;14791;52.392;13.092;2022-08-05T02:42:21;2.02;;;2.02;;
27303;SDS011;14791;52.392;13.092;2022-08-05T02:44:50;2.47;;;2.27;;
27303;SDS011;14791;52.392;13.092;2022-08-05T02:47:20;3.50;;;2.20;;
27303;SDS011;14791;52.392;13.092;2022-08-05T02:49:51;1.80;;;1.80;;
27303;SDS011;14791;52.392;13.092;2022-08-05T02:52:20;1.95;;;1.87;;
27303;SDS011;14791;52.392;13.092;2022-08-05T02:54:49;1.92;;;1.92;;
27303;SDS011;14791;52.392;13.092;2022-08-05T02:57:20;2.33;;;2.22;;
27303;SDS011;14791;52.392;13.092;2022-08-05T02:59:49;2.10;;;2.10;;
27303;SDS011;14791;52.392;13.092;2022-08-05T03:02:21;2.25;;;2.25;;
27303;SDS011;14791;52.392;13.092;2022-08-05T03:04:52;2.17;;;2.17;;
27303;SDS011;14791;52.392;13.092;2022-08-05T03:07:23;2.40;;;2.30;;
27303;SDS011;14791;52.392;13.092;2022-08-05T03:09:53;2.40;;;2.40;;
27303;SDS011;14791;52.392;13.092;2022-08-05T03:12:30;2.17;;;2.08;;
27303;SDS011;14791;52.392;13.092;2022-08-05T03:15:04;2.50;;;2.40;;
27303;SDS011;14791;52.392;13.092;2022-08-05T03:17:35;2.22;;;2.22;;
27303;SDS011;14791;52.392;13.092;2022-08-05T03:20:05;2.37;;;2.05;;
27303;SDS011;14791;52.392;13.092;2022-08-05T03:22:34;2.02;;;2.02;;
27303;SDS011;14791;52.392;13.092;2022-08-05T03:25:03;2.20;;;2.20;;
27303;SDS011;14791;52.392;13.092;2022-08-05T03:27:34;2.58;;;2.47;;
27303;SDS011;14791;52.392;13.092;2022-08-05T03:30:03;2.67;;;2.47;;
27303;SDS011;14791;52.392;13.092;2022-08-05T03:32:32;2.20;;;2.20;;
27303;SDS011;14791;52.392;13.092;2022-08-05T03:35:02;2.37;;;2.33;;
27303;SDS011;14791;52.392;13.092;2022-08-05T03:37:32;2.30;;;2.25;;
27303;SDS011;14791;52.392;13.092;2022-08-05T03:40:02;2.08;;;1.98;;
27303;SDS011;14791;52.392;13.092;2022-08-05T03:42:33;2.52;;;2.35;;
27303;SDS011;14791;52.392;13.092;2022-08-05T03:45:02;3.22;;;2.58;;
27303;SDS011;14791;52.392;13.092;2022-08-05T03:47:32;2.17;;;2.00;;
27303;SDS011;14791;52.392;13.092;2022-08-05T03:50:00;2.37;;;2.27;;
27303;SDS011;14791;52.392;13.092;2022-08-05T03:52:31;2.42;;;2.30;;
27303;SDS011;14791;52.392;13.092;2022-08-05T03:55:07;2.15;;;2.00;;
27303;SDS011;14791;52.392;13.092;2022-08-05T03:57:35;2.25;;;2.15;;
27303;SDS011;14791;52.392;13.092;2022-08-05T04:00:08;2.22;;;2.12;;
27303;SDS011;14791;52.392;13.092;2022-08-05T04:02:39;2.62;;;2.52;;
27303;SDS011;14791;52.392;13.092;2022-08-05T04:05:09;2.47;;;2.37;;
27303;SDS011;14791;52.392;13.092;2022-08-05T04:07:41;2.40;;;2.30;;
27303;SDS011;14791;52.392;13.092;2022-08-05T04:10:11;2.02;;;2.02;;
27303;SDS011;14791;52.392;13.092;2022-08-05T04:12:40;2.45;;;2.35;;
27303;SDS011;14791;52.392;13.092;2022-08-05T04:15:09;2.45;;;2.30;;
27303;SDS011;14791;52.392;13.092;2022-08-05T04:17:38;2.30;;;2.17;;
27303;SDS011;14791;52.392;13.092;2022-08-05T04:20:15;2.02;;;2.02;;
27303;SDS011;14791;52.392;13.092;2022-08-05T04:22:45;2.20;;;1.92;;
27303;SDS011;14791;52.392;13.092;2022-08-05T04:25:14;2.40;;;2.30;;
27303;SDS011;14791;52.392;13.092;2022-08-05T04:27:43;1.80;;;1.80;;
27303;SDS011;14791;52.392;13.092;2022-08-05T04:30:12;2.52;;;2.42;;
27303;SDS011;14791;52.392;13.092;2022-08-05T04:32:41;2.50;;;2.40;;
27303;SDS011;14791;52.392;13.092;2022-08-05T04:35:10;2.87;;;2.77;;
27303;SDS011;14791;52.392;13.092;2022-08-05T04:37:39;2.50;;;2.40;;
27303;SDS011;14791;52.392;13.092;2022-08-05T04:40:08;1.95;;;1.95;;
27303;SDS011;14791;52.392;13.092;2022-08-05T04:42:38;2.20;;;2.12;;
27303;SDS011;14791;52.392;13.092;2022-08-05T04:45:07;3.33;;;2.65;;
27303;SDS011;14791;52.392;13.092;2022-08-05T04:47:36;2.47;;;2.47;;
27303;SDS011;14791;52.392;13.092;2022-08-05T04:50:05;2.45;;;2.35;;
27303;SDS011;14791;52.392;13.092;2022-08-05T04:52:35;2.67;;;2.58;;
27303;SDS011;14791;52.392;13.092;2022-08-05T04:55:04;3.02;;;2.15;;
27303;SDS011;14791;52.392;13.092;2022-08-05T04:57:33;2.22;;;2.12;;
27303;SDS011;14791;52.392;13.092;2022-08-05T05:00:03;2.10;;;1.95;;
27303;SDS011;14791;52.392;13.092;2022-08-05T05:02:32;2.45;;;2.35;;
27303;SDS011;14791;52.392;13.092;2022-08-05T05:05:01;2.37;;;2.27;;
27303;SDS011;14791;52.392;13.092;2022-08-05T05:07:31;2.30;;;2.30;;
27303;SDS011;14791;52.392;13.092;2022-08-05T05:09:59;2.25;;;2.22;;
27303;SDS011;14791;52.392;13.092;2022-08-05T05:12:30;1.85;;;1.85;;
27303;SDS011;14791;52.392;13.092;2022-08-05T05:14:59;2.00;;;2.00;;
27303;SDS011;14791;52.392;13.092;2022-08-05T05:17:34;1.80;;;1.80;;
27303;SDS011;14791;52.392;13.092;2022-08-05T05:20:06;2.35;;;2.35;;
27303;SDS011;14791;52.392;13.092;2022-08-05T05:22:36;1.87;;;1.87;;
27303;SDS011;14791;52.392;13.092;2022-08-05T05:25:05;2.12;;;2.02;;
27303;SDS011;14791;52.392;13.092;2022-08-05T05:27:35;2.30;;;2.17;;
27303;SDS011;14791;52.392;13.092;2022-08-05T05:30:05;2.65;;;2.45;;
27303;SDS011;14791;52.392;13.092;2022-08-05T05:32:34;2.10;;;2.00;;
27303;SDS011;14791;52.392;13.092;2022-08-05T05:35:03;2.70;;;2.60;;
27303;SDS011;14791;52.392;13.092;2022-08-05T05:37:32;2.27;;;2.27;;
27303;SDS011;14791;52.392;13.092;2022-08-05T05:40:01;2.35;;;2.25;;
27303;SDS011;14791;52.392;13.092;2022-08-05T05:42:30;1.75;;;1.75;;
27303;SDS011;14791;52.392;13.092;2022-08-05T05:44:59;1.90;;;1.90;;
27303;SDS011;14791;52.392;13.092;2022-08-05T05:47:28;2.33;;;2.22;;
27303;SDS011;14791;52.392;13.092;2022-08-05T05:49:57;2.40;;;2.30;;
27303;SDS011;14791;52.392;13.092;2022-08-05T05:52:26;3.12;;;2.10;;
27303;SDS011;14791;52.392;13.092;2022-08-05T05:54:57;2.00;;;1.90;;
27303;SDS011;14791;52.392;13.092;2022-08-05T05:57:29;1.95;;;1.95;;
27303;SDS011;14791;52.392;13.092;2022-08-05T05:59:58;1.77;;;1.77;;
27303;SDS011;14791;52.392;13.092;2022-08-05T06:02:27;2.05;;;1.95;;
27303;SDS011;14791;52.392;13.092;2022-08-05T06:04:56;2.40;;;1.92;;
27303;SDS011;14791;52.392;13.092;2022-08-05T06:07:24;1.50;;;1.50;;
27303;SDS011;14791;52.392;13.092;2022-08-05T06:09:53;1.77;;;1.77;;
27303;SDS011;14791;52.392;13.092;2022-08-05T06:12:22;2.20;;;2.10;;
27303;SDS011;14791;52.392;13.092;2022-08-05T06:14:51;1.90;;;1.80;;
27303;SDS011;14791;52.392;13.092;2022-08-05T06:17:20;1.98;;;1.87;;
27303;SDS011;14791;52.392;13.092;2022-08-05T06:19:49;1.80;;;1.67;;
27303;SDS011;14791;52.392;13.092;2022-08-05T06:22:21;2.92;;;1.40;;
27303;SDS011;14791;52.392;13.092;2022-08-05T06:24:52;1.80;;;1.80;;
27303;SDS011;14791;52.392;13.092;2022-08-05T06:27:21;1.67;;;1.67;;
27303;SDS011;14791;52.392;13.092;2022-08-05T06:29:50;1.82;;;1.72;;
27303;SDS011;14791;52.392;13.092;2022-08-05T06:32:19;2.42;;;2.33;;
27303;SDS011;14791;52.392;13.092;2022-08-05T06:34:48;1.82;;;1.82;;
27303;SDS011;14791;52.392;13.092;2022-08-05T06:37:17;1.95;;;1.80;;
27303;SDS011;14791;52.392;13.092;2022-08-05T06:39:45;1.40;;;1.40;;
27303;SDS011;14791;52.392;13.092;2022-08-05T06:42:14;3.42;;;1.85;;
27303;SDS011;14791;52.392;13.092;2022-08-05T06:44:43;1.75;;;1.75;;
27303;SDS011;14791;52.392;13.092;2022-08-05T06:47:12;2.00;;;1.90;;
27303;SDS011;14791;52.392;13.092;2022-08-05T06:49:41;1.72;;;1.55;;
27303;SDS011;14791;52.392;13.092;2022-08-05T06:52:10;1.70;;;1.70;;
27303;SDS011;14791;52.392;13.092;2022-08-05T06:54:39;1.50;;;1.50;;
27303;SDS011;14791;52.392;13.092;2022-08-05T06:57:07;2.60;;;1.98;;
27303;SDS011;14791;52.392;13.092;2022-08-05T06:59:38;2.10;;;1.90;;
27303;SDS011;14791;52.392;13.092;2022-08-05T07:02:08;2.35;;;2.00;;
27303;SDS011;14791;52.392;13.092;2022-08-05T07:04:37;1.90;;;1.80;;
27303;SDS011;14791;52.392;13.092;2022-08-05T07:07:05;1.65;;;1.55;;
27303;SDS011;14791;52.392;13.092;2022-08-05T07:09:34;1.80;;;1.80;;
27303;SDS011;14791;52.392;13.092;2022-08-05T07:12:03;1.82;;;1.82;;
27303;SDS011;14791;52.392;13.092;2022-08-05T07:14:33;1.60;;;1.60;;
27303;SDS011;14791;52.392;13.092;2022-08-05T07:17:19;1.60;;;1.60;;
27303;SDS011;14791;52.392;13.092;2022-08-05T07:19:48;1.62;;;1.60;;
27303;SDS011;14791;52.392;13.092;2022-08-05T07:22:19;1.72;;;1.72;;
27303;SDS011;14791;52.392;13.092;2022-08-05T07:24:48;1.80;;;1.80;;
27303;SDS011;14791;52.392;13.092;2022-08-05T07:27:20;1.57;;;1.57;;
27303;SDS011;14791;52.392;13.092;2022-08-05T07:29:50;2.30;;;2.10;;
27303;SDS011;14791;52.392;13.092;2022-08-05T07:32:19;1.40;;;1.32;;
27303;SDS011;14791;52.392;13.092;2022-08-05T07:34:48;1.60;;;1.60;;
27303;SDS011;14791;52.392;13.092;2022-08-05T07:37:18;1.90;;;1.90;;
27303;SDS011;14791;52.392;13.092;2022-08-05T07:39:47;1.75;;;1.65;;
27303;SDS011;14791;52.392;13.092;2022-08-05T07:42:16;1.57;;;1.57;;
27303;SDS011;14791;52.392;13.092;2022-08-05T07:44:45;1.80;;;1.80;;
27303;SDS011;14791;52.392;13.092;2022-08-05T07:47:14;1.80;;;1.80;;
27303;SDS011;14791;52.392;13.092;2022-08-05T07:49:44;1.45;;;1.42;;
27303;SDS011;14791;52.392;13.092;2022-08-05T07:52:13;1.57;;;1.50;;
27303;SDS011;14791;52.392;13.092;2022-08-05T07:54:42;1.90;;;1.90;;
27303;SDS011;14791;52.392;13.092;2022-08-05T07:57:10;1.60;;;1.60;;
27303;SDS011;14791;52.392;13.092;2022-08-05T07:59:39;1.60;;;1.60;;
27303;SDS011;14791;52.392;13.092;2022-08-05T08:02:08;1.65;;;1.62;;
27303;SDS011;14791;52.392;13.092;2022-08-05T08:04:38;1.80;;;1.80;;
27303;SDS011;14791;52.392;13.092;2022-08-05T08:07:07;1.80;;;1.70;;
27303;SDS011;14791;52.392;13.092;2022-08-05T08:09:36;2.00;;;1.90;;
27303;SDS011;14791;52.392;13.092;2022-08-05T08:12:04;2.00;;;2.00;;
27303;SDS011;14791;52.392;13.092;2022-08-05T08:14:34;1.98;;;1.87;;
27303;SDS011;14791;52.392;13.092;2022-08-05T08:17:02;1.60;;;1.60;;
27303;SDS011;14791;52.392;13.092;2022-08-05T08:19:33;1.80;;;1.80;;
27303;SDS011;14791;52.392;13.092;2022-08-05T08:22:02;2.00;;;1.90;;
27303;SDS011;14791;52.392;13.092;2022-08-05T08:24:31;1.90;;;1.80;;
27303;SDS011;14791;52.392;13.092;2022-08-05T08:27:01;1.85;;;1.75;;
27303;SDS011;14791;52.392;13.092;2022-08-05T08:29:31;2.02;;;1.92;;
27303;SDS011;14791;52.392;13.092;2022-08-05T08:32:00;1.75;;;1.75;;
27303;SDS011;14791;52.392;13.092;2022-08-05T08:34:29;1.77;;;1.77;;
27303;SDS011;14791;52.392;13.092;2022-08-05T08:36:58;1.98;;;1.87;;
27303;SDS011;14791;52.392;13.092;2022-08-05T08:39:27;5.85;;;2.08;;
27303;SDS011;14791;52.392;13.092;2022-08-05T08:41:56;2.00;;;1.82;;
27303;SDS011;14791;52.392;13.092;2022-08-05T08:44:30;1.92;;;1.82;;
27303;SDS011;14791;52.392;13.092;2022-08-05T08:47:01;1.80;;;1.70;;
27303;SDS011;14791;52.392;13.092;2022-08-05T08:49:33;1.98;;;1.98;;
27303;SDS011;14791;52.392;13.092;2022-08-05T08:52:13;1.60;;;1.60;;
27303;SDS011;14791;52.392;13.092;2022-08-05T08:54:46;1.65;;;1.65;;
27303;SDS011;14791;52.392;13.092;2022-08-05T08:57:17;2.30;;;2.20;;
27303;SDS011;14791;52.392;13.092;2022-08-05T09:00:07;1.65;;;1.65;;
27303;SDS011;14791;52.392;13.092;2022-08-05T09:02:23;1.80;;;1.70;;
27303;SDS011;14791;52.392;13.092;2022-08-05T09:04:53;1.57;;;1.57;;
27303;SDS011;14791;52.392;13.092;2022-08-05T09:07:21;1.57;;;1.57;;
27303;SDS011;14791;52.392;13.092;2022-08-05T09:09:50;1.70;;;1.70;;
27303;SDS011;14791;52.392;13.092;2022-08-05T09:12:19;1.90;;;1.90;;
27303;SDS011;14791;52.392;13.092;2022-08-05T09:14:48;1.75;;;1.70;;
27303;SDS011;14791;52.392;13.092;2022-08-05T09:17:18;1.47;;;1.47;;
27303;SDS011;14791;52.392;13.092;2022-08-05T09:19:46;1.57;;;1.47;;
27303;SDS011;14791;52.392;13.092;2022-08-05T09:22:15;3.65;;;2.00;;
27303;SDS011;14791;52.392;13.092;2022-08-05T09:24:55;2.05;;;1.95;;
27303;SDS011;14791;52.392;13.092;2022-08-05T09:27:31;1.85;;;1.80;;
27303;SDS011;14791;52.392;13.092;2022-08-05T09:30:04;1.60;;;1.57;;
27303;SDS011;14791;52.392;13.092;2022-08-05T09:32:41;1.80;;;1.75;;
27303;SDS011;14791;52.392;13.092;2022-08-05T09:35:08;1.30;;;1.30;;
27303;SDS011;14791;52.392;13.092;2022-08-05T09:37:48;2.40;;;2.20;;
27303;SDS011;14791;52.392;13.092;2022-08-05T09:40:31;1.90;;;1.90;;
27303;SDS011;14791;52.392;13.092;2022-08-05T09:43:04;1.50;;;1.50;;
27303;SDS011;14791;52.392;13.092;2022-08-05T09:45:35;1.92;;;1.92;;
27303;SDS011;14791;52.392;13.092;2022-08-05T09:48:22;2.58;;;2.35;;
27303;SDS011;14791;52.392;13.092;2022-08-05T09:51:03;1.70;;;1.70;;
27303;SDS011;14791;52.392;13.092;2022-08-05T09:53:30;1.72;;;1.72;;
27303;SDS011;14791;52.392;13.092;2022-08-05T09:56:01;2.20;;;2.10;;
27303;SDS011;14791;52.392;13.092;2022-08-05T09:58:30;1.85;;;1.85;;
27303;SDS011;14791;52.392;13.092;2022-08-05T10:01:00;1.85;;;1.75;;
27303;SDS011;14791;52.392;13.092;2022-08-05T10:03:31;1.85;;;1.85;;
27303;SDS011;14791;52.392;13.092;2022-08-05T10:06:05;1.80;;;1.80;;
27303;SDS011;14791;52.392;13.092;2022-08-05T10:08:36;1.95;;;1.90;;
27303;SDS011;14791;52.392;13.092;2022-08-05T10:11:13;1.87;;;1.77;;
27303;SDS011;14791;52.392;13.092;2022-08-05T10:13:43;1.45;;;1.45;;
27303;SDS011;14791;52.392;13.092;2022-08-05T10:16:28;1.80;;;1.80;;
27303;SDS011;14791;52.392;13.092;2022-08-05T10:19:02;1.65;;;1.65;;
27303;SDS011;14791;52.392;13.092;2022-08-05T10:21:30;2.00;;;1.90;;
27303;SDS011;14791;52.392;13.092;2022-08-05T10:24:00;2.25;;;2.17;;
27303;SDS011;14791;52.392;13.092;2022-08-05T10:26:29;2.10;;;2.00;;
27303;SDS011;14791;52.392;13.092;2022-08-05T10:28:58;2.98;;;1.87;;
27303;SDS011;14791;52.392;13.092;2022-08-05T10:31:27;2.10;;;2.00;;
27303;SDS011;14791;52.392;13.092;2022-08-05T10:33:56;1.62;;;1.62;;
27303;SDS011;14791;52.392;13.092;2022-08-05T10:36:25;2.00;;;2.00;;
27303;SDS011;14791;52.392;13.092;2022-08-05T10:38:57;2.12;;;2.02;;
27303;SDS011;14791;52.392;13.092;2022-08-05T10:41:30;2.10;;;2.10;;
27303;SDS011;14791;52.392;13.092;2022-08-05T10:44:08;2.33;;;2.22;;
27303;SDS011;14791;52.392;13.092;2022-08-05T10:46:42;2.10;;;1.95;;
27303;SDS011;14791;52.392;13.092;2022-08-05T10:49:19;2.12;;;2.02;;
27303;SDS011;14791;52.392;13.092;2022-08-05T10:51:54;2.02;;;1.92;;
27303;SDS011;14791;52.392;13.092;2022-08-05T10:54:46;1.70;;;1.70;;
27303;SDS011;14791;52.392;13.092;2022-08-05T10:57:26;1.98;;;1.80;;
27303;SDS011;14791;52.392;13.092;2022-08-05T11:00:13;1.87;;;1.82;;
27303;SDS011;14791;52.392;13.092;2022-08-05T11:05:36;2.00;;;2.00;;
27303;SDS011;14791;52.392;13.092;2022-08-05T11:08:07;2.05;;;2.00;;
27303;SDS011;14791;52.392;13.092;2022-08-05T11:10:37;1.72;;;1.72;;
27303;SDS011;14791;52.392;13.092;2022-08-05T11:13:08;3.83;;;3.00;;
27303;SDS011;14791;52.392;13.092;2022-08-05T11:15:37;1.80;;;1.80;;
27303;SDS011;14791;52.392;13.092;2022-08-05T11:18:08;1.98;;;1.87;;
27303;SDS011;14791;52.392;13.092;2022-08-05T11:20:50;1.70;;;1.70;;
27303;SDS011;14791;52.392;13.092;2022-08-05T11:23:31;1.77;;;1.67;;
27303;SDS011;14791;52.392;13.092;2022-08-05T11:26:12;1.42;;;1.40;;
27303;SDS011;14791;52.392;13.092;2022-08-05T11:28:49;4.15;;;1.70;;
27303;SDS011;14791;52.392;13.092;2022-08-05T11:31:20;1.35;;;1.35;;
27303;SDS011;14791;52.392;13.092;2022-08-05T11:33:53;1.87;;;1.87;;
27303;SDS011;14791;52.392;13.092;2022-08-05T11:36:44;1.40;;;1.40;;
27303;SDS011;14791;52.392;13.092;2022-08-05T11:39:15;1.60;;;1.60;;
27303;SDS011;14791;52.392;13.092;2022-08-05T11:41:49;1.67;;;1.67;;
27303;SDS011;14791;52.392;13.092;2022-08-05T11:44:19;1.50;;;1.50;;
27303;SDS011;14791;52.392;13.092;2022-08-05T11:46:52;1.35;;;1.35;;
27303;SDS011;14791;52.392;13.092;2022-08-05T11:49:21;1.35;;;1.35;;
27303;SDS011;14791;52.392;13.092;2022-08-05T11:51:51;1.60;;;1.60;;
27303;SDS011;14791;52.392;13.092;2022-08-05T11:54:25;1.80;;;1.80;;
27303;SDS011;14791;52.392;13.092;2022-08-05T11:56:54;1.40;;;1.40;;
27303;SDS011;14791;52.392;13.092;2022-08-05T11:59:24;1.17;;;1.17;;
27303;SDS011;14791;52.392;13.092;2022-08-05T12:02:06;1.47;;;1.42;;
27303;SDS011;14791;52.392;13.092;2022-08-05T12:04:27;1.62;;;1.62;;
27303;SDS011;14791;52.392;13.092;2022-08-05T12:06:58;1.60;;;1.60;;
27303;SDS011;14791;52.392;13.092;2022-08-05T12:09:28;1.62;;;1.50;;
27303;SDS011;14791;52.392;13.092;2022-08-05T12:11:58;1.42;;;1.42;;
27303;SDS011;14791;52.392;13.092;2022-08-05T12:14:38;1.12;;;1.12;;
27303;SDS011;14791;52.392;13.092;2022-08-05T12:17:09;1.30;;;1.30;;
27303;SDS011;14791;52.392;13.092;2022-08-05T12:19:40;1.50;;;1.50;;
27303;SDS011;14791;52.392;13.092;2022-08-05T12:22:25;1.20;;;1.20;;
27303;SDS011;14791;52.392;13.092;2022-08-05T12:24:49;1.40;;;1.40;;
27303;SDS011;14791;52.392;13.092;2022-08-05T12:27:28;1.32;;;1.32;;
27303;SDS011;14791;52.392;13.092;2022-08-05T12:30:04;1.50;;;1.50;;
27303;SDS011;14791;52.392;13.092;2022-08-05T12:32:41;1.40;;;1.40;;
27303;SDS011;14791;52.392;13.092;2022-08-05T12:35:12;1.65;;;1.55;;
27303;SDS011;14791;52.392;13.092;2022-08-05T12:37:42;1.57;;;1.57;;
27303;SDS011;14791;52.392;13.092;2022-08-05T12:40:13;1.50;;;1.50;;
27303;SDS011;14791;52.392;13.092;2022-08-05T12:42:43;1.70;;;1.70;;
27303;SDS011;14791;52.392;13.092;2022-08-05T12:45:13;1.60;;;1.47;;
27303;SDS011;14791;52.392;13.092;2022-08-05T12:47:42;1.40;;;1.40;;
27303;SDS011;14791;52.392;13.092;2022-08-05T12:50:11;1.27;;;1.27;;
27303;SDS011;14791;52.392;13.092;2022-08-05T12:52:52;1.60;;;1.60;;
27303;SDS011;14791;52.392;13.092;2022-08-05T12:55:26;1.87;;;1.77;;
27303;SDS011;14791;52.392;13.092;2022-08-05T12:57:57;1.37;;;1.37;;
27303;SDS011;14791;52.392;13.092;2022-08-05T13:00:27;1.50;;;1.45;;
27303;SDS011;14791;52.392;13.092;2022-08-05T13:02:57;1.65;;;1.55;;
27303;SDS011;14791;52.392;13.092;2022-08-05T13:05:27;1.25;;;1.25;;
27303;SDS011;14791;52.392;13.092;2022-08-05T13:07:56;1.60;;;1.60;;
27303;SDS011;14791;52.392;13.092;2022-08-05T13:10:25;1.50;;;1.50;;
27303;SDS011;14791;52.392;13.092;2022-08-05T13:12:56;2.55;;;1.60;;
27303;SDS011;14791;52.392;13.092;2022-08-05T13:15:29;1.70;;;1.70;;
27303;SDS011;14791;52.392;13.092;2022-08-05T13:17:59;1.35;;;1.35;;
27303;SDS011;14791;52.392;13.092;2022-08-05T13:20:34;1.60;;;1.60;;
27303;SDS011;14791;52.392;13.092;2022-08-05T13:23:03;1.30;;;1.30;;
27303;SDS011;14791;52.392;13.092;2022-08-05T13:25:32;1.42;;;1.42;;
27303;SDS011;14791;52.392;13.092;2022-08-05T13:28:01;1.52;;;1.52;;
27303;SDS011;14791;52.392;13.092;2022-08-05T13:30:31;1.40;;;1.40;;
27303;SDS011;14791;52.392;13.092;2022-08-05T13:32:59;1.52;;;1.42;;
27303;SDS011;14791;52.392;13.092;2022-08-05T13:35:28;1.47;;;1.47;;
27303;SDS011;14791;52.392;13.092;2022-08-05T13:37:57;1.65;;;1.47;;
27303;SDS011;14791;52.392;13.092;2022-08-05T13:40:26;1.57;;;1.57;;
27303;SDS011;14791;52.392;13.092;2022-08-05T13:42:55;1.45;;;1.45;;
27303;SDS011;14791;52.392;13.092;2022-08-05T13:45:24;1.70;;;1.60;;
27303;SDS011;14791;52.392;13.092;2022-08-05T13:47:53;1.32;;;1.32;;
27303;SDS011;14791;52.392;13.092;2022-08-05T13:50:22;1.40;;;1.40;;
27303;SDS011;14791;52.392;13.092;2022-08-05T13:52:51;1.47;;;1.47;;
27303;SDS011;14791;52.392;13.092;2022-08-05T13:55:20;1.67;;;1.57;;
27303;SDS011;14791;52.392;13.092;2022-08-05T13:57:49;1.47;;;1.47;;
27303;SDS011;14791;52.392;13.092;2022-08-05T14:00:18;1.30;;;1.30;;
27303;SDS011;14791;52.392;13.092;2022-08-05T14:02:47;2.58;;;1.77;;
27303;SDS011;14791;52.392;13.092;2022-08-05T14:05:16;1.42;;;1.42;;
27303;SDS011;14791;52.392;13.092;2022-08-05T14:07:45;1.55;;;1.45;;
27303;SDS011;14791;52.392;13.092;2022-08-05T14:10:15;1.35;;;1.35;;
27303;SDS011;14791;52.392;13.092;2022-08-05T14:12:45;1.57;;;1.57;;
27303;SDS011;14791;52.392;13.092;2022-08-05T14:15:14;1.85;;;1.85;;
27303;SDS011;14791;52.392;13.092;2022-08-05T14:17:44;1.47;;;1.47;;
27303;SDS011;14791;52.392;13.092;2022-08-05T14:20:13;1.50;;;1.50;;
27303;SDS011;14791;52.392;13.092;2022-08-05T14:22:42;1.47;;;1.47;;
27303;SDS011;14791;52.392;13.092;2022-08-05T14:25:11;1.67;;;1.67;;
27303;SDS011;14791;52.392;13.092;2022-08-05T14:27:40;1.40;;;1.40;;
27303;SDS011;14791;52.392;13.092;2022-08-05T14:30:10;1.60;;;1.60;;
27303;SDS011;14791;52.392;13.092;2022-08-05T14:32:39;1.60;;;1.60;;
27303;SDS011;14791;52.392;13.092;2022-08-05T14:35:11;1.70;;;1.60;;
27303;SDS011;14791;52.392;13.092;2022-08-05T14:37:40;2.33;;;2.22;;
27303;SDS011;14791;52.392;13.092;2022-08-05T14:40:09;2.08;;;1.90;;
27303;SDS011;14791;52.392;13.092;2022-08-05T14:42:38;1.90;;;1.90;;
27303;SDS011;14791;52.392;13.092;2022-08-05T14:45:07;1.80;;;1.80;;
27303;SDS011;14791;52.392;13.092;2022-08-05T14:47:37;2.08;;;2.08;;
27303;SDS011;14791;52.392;13.092;2022-08-05T14:50:06;1.90;;;1.80;;
27303;SDS011;14791;52.392;13.092;2022-08-05T14:52:35;1.80;;;1.80;;
27303;SDS011;14791;52.392;13.092;2022-08-05T14:55:04;1.90;;;1.90;;
27303;SDS011;14791;52.392;13.092;2022-08-05T14:57:34;1.98;;;1.77;;
27303;SDS011;14791;52.392;13.092;2022-08-05T15:00:03;1.72;;;1.72;;
27303;SDS011;14791;52.392;13.092;2022-08-05T15:02:33;1.80;;;1.80;;
27303;SDS011;14791;52.392;13.092;2022-08-05T15:05:02;1.90;;;1.80;;
27303;SDS011;14791;52.392;13.092;2022-08-05T15:07:31;1.70;;;1.70;;
27303;SDS011;14791;52.392;13.092;2022-08-05T15:10:00;1.67;;;1.52;;
27303;SDS011;14791;52.392;13.092;2022-08-05T15:12:29;2.17;;;2.08;;
27303;SDS011;14791;52.392;13.092;2022-08-05T15:14:58;2.05;;;1.72;;
27303;SDS011;14791;52.392;13.092;2022-08-05T15:17:30;1.60;;;1.55;;